sensor_id;sensor_type;location;lat;lon;timestamp;temperature;humidity
70366;DHT22;57787;48.216;12.396;2023-11-19T00:00:14;4.70;90.20
70366;DHT22;57787;48.216;12.396;2023-11-19T00:02:41;4.70;90.20
70366;DHT22;57787;48.216;12.396;2023-11-19T00:05:09;4.70;90.10
70366;DHT22;57787;48.216;12.396;2023-11-19T00:07:41;4.70;90.20
70366;DHT22;57787;48.216;12.396;2023-11-19T00:10:13;4.70;90.20
70366;DHT22;57787;48.216;12.396;2023-11-19T00:12:42;4.70;90.20
70366;DHT22;57787;48.216;12.396;2023-11-19T00:15:10;4.70;90.30
70366;DHT22;57787;48.216;12.396;2023-11-19T00:17:41;4.70;90.40
70366;DHT22;57787;48.216;12.396;2023-11-19T00:20:15;4.70;90.40
70366;DHT22;57787;48.216;12.396;2023-11-19T00:22:42;4.80;90.40
70366;DHT22;57787;48.216;12.396;2023-11-19T00:25:15;4.80;90.30
70366;DHT22;57787;48.216;12.396;2023-11-19T00:27:42;4.80;90.20
70366;DHT22;57787;48.216;12.396;2023-11-19T00:30:11;4.80;90.00
70366;DHT22;57787;48.216;12.396;2023-11-19T00:32:41;4.80;90.20
70366;DHT22;57787;48.216;12.396;2023-11-19T00:35:08;4.80;90.20
70366;DHT22;57787;48.216;12.396;2023-11-19T00:37:37;4.80;90.20
70366;DHT22;57787;48.216;12.396;2023-11-19T00:40:04;4.80;90.20
70366;DHT22;57787;48.216;12.396;2023-11-19T00:42:32;4.80;90.10
70366;DHT22;57787;48.216;12.396;2023-11-19T00:45:01;4.80;90.30
70366;DHT22;57787;48.216;12.396;2023-11-19T00:47:31;4.80;90.40
70366;DHT22;57787;48.216;12.396;2023-11-19T00:49:58;4.80;90.20
70366;DHT22;57787;48.216;12.396;2023-11-19T00:52:25;4.80;90.30
70366;DHT22;57787;48.216;12.396;2023-11-19T00:54:51;4.80;90.30
70366;DHT22;57787;48.216;12.396;2023-11-19T00:57:18;4.80;90.30
70366;DHT22;57787;48.216;12.396;2023-11-19T00:59:48;4.90;90.30
70366;DHT22;57787;48.216;12.396;2023-11-19T01:02:14;4.80;90.30
70366;DHT22;57787;48.216;12.396;2023-11-19T01:04:42;4.80;90.30
70366;DHT22;57787;48.216;12.396;2023-11-19T01:07:09;4.80;90.30
70366;DHT22;57787;48.216;12.396;2023-11-19T01:09:41;4.90;90.20
70366;DHT22;57787;48.216;12.396;2023-11-19T01:12:08;4.80;90.30
70366;DHT22;57787;48.216;12.396;2023-11-19T01:14:39;4.80;90.40
70366;DHT22;57787;48.216;12.396;2023-11-19T01:17:06;4.80;90.40
70366;DHT22;57787;48.216;12.396;2023-11-19T01:19:33;4.80;90.50
70366;DHT22;57787;48.216;12.396;2023-11-19T01:22:00;4.80;90.50
70366;DHT22;57787;48.216;12.396;2023-11-19T01:24:29;4.80;90.60
70366;DHT22;57787;48.216;12.396;2023-11-19T01:26:57;4.80;90.50
70366;DHT22;57787;48.216;12.396;2023-11-19T01:29:29;4.90;90.50
70366;DHT22;57787;48.216;12.396;2023-11-19T01:31:56;4.80;90.50
70366;DHT22;57787;48.216;12.396;2023-11-19T01:34:24;4.90;90.60
70366;DHT22;57787;48.216;12.396;2023-11-19T01:36:51;4.90;90.70
70366;DHT22;57787;48.216;12.396;2023-11-19T01:39:19;4.90;90.60
70366;DHT22;57787;48.216;12.396;2023-11-19T01:41:46;4.90;90.60
70366;DHT22;57787;48.216;12.396;2023-11-19T01:44:13;4.90;90.60
70366;DHT22;57787;48.216;12.396;2023-11-19T01:46:40;4.90;90.60
70366;DHT22;57787;48.216;12.396;2023-11-19T01:49:13;4.90;90.60
70366;DHT22;57787;48.216;12.396;2023-11-19T01:51:42;4.90;90.60
70366;DHT22;57787;48.216;12.396;2023-11-19T01:54:09;4.90;90.70
70366;DHT22;57787;48.216;12.396;2023-11-19T01:56:39;4.90;90.70
70366;DHT22;57787;48.216;12.396;2023-11-19T01:59:09;4.90;90.70
70366;DHT22;57787;48.216;12.396;2023-11-19T02:01:36;4.90;90.60
70366;DHT22;57787;48.216;12.396;2023-11-19T02:04:07;4.90;90.60
70366;DHT22;57787;48.216;12.396;2023-11-19T02:06:37;5.00;90.60
70366;DHT22;57787;48.216;12.396;2023-11-19T02:09:04;5.00;90.70
70366;DHT22;57787;48.216;12.396;2023-11-19T02:11:34;5.00;90.70
70366;DHT22;57787;48.216;12.396;2023-11-19T02:14:05;5.00;90.80
70366;DHT22;57787;48.216;12.396;2023-11-19T02:16:33;5.00;90.80
70366;DHT22;57787;48.216;12.396;2023-11-19T02:19:01;5.00;90.70
70366;DHT22;57787;48.216;12.396;2023-11-19T02:21:29;5.00;90.70
70366;DHT22;57787;48.216;12.396;2023-11-19T02:23:58;5.00;90.60
70366;DHT22;57787;48.216;12.396;2023-11-19T02:26:33;5.00;90.70
70366;DHT22;57787;48.216;12.396;2023-11-19T02:29:03;5.00;90.70
70366;DHT22;57787;48.216;12.396;2023-11-19T02:31:34;5.00;90.80
70366;DHT22;57787;48.216;12.396;2023-11-19T02:34:02;5.10;90.80
70366;DHT22;57787;48.216;12.396;2023-11-19T02:36:29;5.10;90.80
70366;DHT22;57787;48.216;12.396;2023-11-19T02:38:56;5.10;90.70
70366;DHT22;57787;48.216;12.396;2023-11-19T02:41:23;5.10;90.80
70366;DHT22;57787;48.216;12.396;2023-11-19T02:43:52;5.10;90.70
70366;DHT22;57787;48.216;12.396;2023-11-19T02:46:20;5.10;90.80
70366;DHT22;57787;48.216;12.396;2023-11-19T02:48:47;5.10;90.70
70366;DHT22;57787;48.216;12.396;2023-11-19T02:51:15;5.10;90.70
70366;DHT22;57787;48.216;12.396;2023-11-19T02:53:41;5.10;90.80
70366;DHT22;57787;48.216;12.396;2023-11-19T02:56:11;5.20;90.70
70366;DHT22;57787;48.216;12.396;2023-11-19T02:58:52;5.20;90.80
70366;DHT22;57787;48.216;12.396;2023-11-19T03:01:24;5.20;90.80
70366;DHT22;57787;48.216;12.396;2023-11-19T03:03:58;5.20;90.80
70366;DHT22;57787;48.216;12.396;2023-11-19T03:06:26;5.20;90.70
70366;DHT22;57787;48.216;12.396;2023-11-19T03:08:54;5.20;90.80
70366;DHT22;57787;48.216;12.396;2023-11-19T03:11:23;5.20;90.80
70366;DHT22;57787;48.216;12.396;2023-11-19T03:13:51;5.20;90.80
70366;DHT22;57787;48.216;12.396;2023-11-19T03:16:18;5.20;90.90
70366;DHT22;57787;48.216;12.396;2023-11-19T03:18:45;5.20;90.90
70366;DHT22;57787;48.216;12.396;2023-11-19T03:21:15;5.30;90.90
70366;DHT22;57787;48.216;12.396;2023-11-19T03:23:41;5.30;90.90
70366;DHT22;57787;48.216;12.396;2023-11-19T03:26:10;5.30;90.90
70366;DHT22;57787;48.216;12.396;2023-11-19T03:28:39;5.30;90.90
70366;DHT22;57787;48.216;12.396;2023-11-19T03:31:07;5.30;90.90
70366;DHT22;57787;48.216;12.396;2023-11-19T03:33:36;5.30;90.80
70366;DHT22;57787;48.216;12.396;2023-11-19T03:36:04;5.30;90.80
70366;DHT22;57787;48.216;12.396;2023-11-19T03:38:32;5.30;90.80
70366;DHT22;57787;48.216;12.396;2023-11-19T03:40:59;5.30;90.80
70366;DHT22;57787;48.216;12.396;2023-11-19T03:43:27;5.30;90.90
70366;DHT22;57787;48.216;12.396;2023-11-19T03:45:54;5.30;90.80
70366;DHT22;57787;48.216;12.396;2023-11-19T03:48:21;5.30;90.80
70366;DHT22;57787;48.216;12.396;2023-11-19T03:50:49;5.40;90.80
70366;DHT22;57787;48.216;12.396;2023-11-19T03:53:15;5.30;90.80
70366;DHT22;57787;48.216;12.396;2023-11-19T03:55:45;5.30;90.70
70366;DHT22;57787;48.216;12.396;2023-11-19T03:58:12;5.40;90.80
70366;DHT22;57787;48.216;12.396;2023-11-19T04:00:39;5.30;90.80
70366;DHT22;57787;48.216;12.396;2023-11-19T04:03:06;5.40;90.80
70366;DHT22;57787;48.216;12.396;2023-11-19T04:05:32;5.30;90.80
70366;DHT22;57787;48.216;12.396;2023-11-19T04:08:01;5.40;90.70
70366;DHT22;57787;48.216;12.396;2023-11-19T04:10:29;5.40;90.80
70366;DHT22;57787;48.216;12.396;2023-11-19T04:12:56;5.40;90.80
70366;DHT22;57787;48.216;12.396;2023-11-19T04:15:23;5.40;90.80
70366;DHT22;57787;48.216;12.396;2023-11-19T04:17:50;5.40;90.80
70366;DHT22;57787;48.216;12.396;2023-11-19T04:20:19;5.40;90.90
70366;DHT22;57787;48.216;12.396;2023-11-19T04:22:46;5.50;90.90
70366;DHT22;57787;48.216;12.396;2023-11-19T04:25:14;5.50;90.90
70366;DHT22;57787;48.216;12.396;2023-11-19T04:27:42;5.50;90.80
70366;DHT22;57787;48.216;12.396;2023-11-19T04:30:10;5.50;90.90
70366;DHT22;57787;48.216;12.396;2023-11-19T04:32:37;5.50;90.80
70366;DHT22;57787;48.216;12.396;2023-11-19T04:35:04;5.50;90.90
70366;DHT22;57787;48.216;12.396;2023-11-19T04:37:33;5.50;90.90
70366;DHT22;57787;48.216;12.396;2023-11-19T04:40:01;5.50;90.90
70366;DHT22;57787;48.216;12.396;2023-11-19T04:42:28;5.60;90.90
70366;DHT22;57787;48.216;12.396;2023-11-19T04:44:56;5.60;91.00
70366;DHT22;57787;48.216;12.396;2023-11-19T04:47:23;5.60;90.90
70366;DHT22;57787;48.216;12.396;2023-11-19T04:49:53;5.60;90.90
70366;DHT22;57787;48.216;12.396;2023-11-19T04:52:20;5.60;90.90
70366;DHT22;57787;48.216;12.396;2023-11-19T04:54:48;5.60;90.90
70366;DHT22;57787;48.216;12.396;2023-11-19T04:57:16;5.70;90.90
70366;DHT22;57787;48.216;12.396;2023-11-19T04:59:43;5.70;90.90
70366;DHT22;57787;48.216;12.396;2023-11-19T05:02:10;5.70;91.00
70366;DHT22;57787;48.216;12.396;2023-11-19T05:04:37;5.70;91.00
70366;DHT22;57787;48.216;12.396;2023-11-19T05:07:07;5.70;91.00
70366;DHT22;57787;48.216;12.396;2023-11-19T05:09:34;5.70;91.00
70366;DHT22;57787;48.216;12.396;2023-11-19T05:12:02;5.70;91.00
70366;DHT22;57787;48.216;12.396;2023-11-19T05:14:29;5.80;91.10
70366;DHT22;57787;48.216;12.396;2023-11-19T05:16:56;5.80;91.10
70366;DHT22;57787;48.216;12.396;2023-11-19T05:19:23;5.80;91.00
70366;DHT22;57787;48.216;12.396;2023-11-19T05:21:51;5.80;91.00
70366;DHT22;57787;48.216;12.396;2023-11-19T05:24:19;5.80;91.00
70366;DHT22;57787;48.216;12.396;2023-11-19T05:26:46;5.80;91.00
70366;DHT22;57787;48.216;12.396;2023-11-19T05:29:16;5.80;91.00
70366;DHT22;57787;48.216;12.396;2023-11-19T05:31:44;5.80;91.00
70366;DHT22;57787;48.216;12.396;2023-11-19T05:34:11;5.80;91.00
70366;DHT22;57787;48.216;12.396;2023-11-19T05:36:38;5.90;91.00
70366;DHT22;57787;48.216;12.396;2023-11-19T05:39:06;5.90;91.00
70366;DHT22;57787;48.216;12.396;2023-11-19T05:41:35;5.90;90.90
70366;DHT22;57787;48.216;12.396;2023-11-19T05:44:02;5.90;91.00
70366;DHT22;57787;48.216;12.396;2023-11-19T05:46:29;5.90;91.00
70366;DHT22;57787;48.216;12.396;2023-11-19T05:48:56;6.00;91.10
70366;DHT22;57787;48.216;12.396;2023-11-19T05:51:22;5.90;91.20
70366;DHT22;57787;48.216;12.396;2023-11-19T05:53:50;5.90;91.10
70366;DHT22;57787;48.216;12.396;2023-11-19T05:56:19;6.00;91.10
70366;DHT22;57787;48.216;12.396;2023-11-19T05:58:49;6.00;91.10
70366;DHT22;57787;48.216;12.396;2023-11-19T06:01:16;6.00;91.20
70366;DHT22;57787;48.216;12.396;2023-11-19T06:03:44;6.00;91.20
70366;DHT22;57787;48.216;12.396;2023-11-19T06:06:16;6.00;91.20
70366;DHT22;57787;48.216;12.396;2023-11-19T06:08:43;6.10;91.30
70366;DHT22;57787;48.216;12.396;2023-11-19T06:11:10;6.10;91.30
70366;DHT22;57787;48.216;12.396;2023-11-19T06:13:41;6.00;91.30
70366;DHT22;57787;48.216;12.396;2023-11-19T06:16:13;6.10;91.40
70366;DHT22;57787;48.216;12.396;2023-11-19T06:18:41;6.20;91.40
70366;DHT22;57787;48.216;12.396;2023-11-19T06:21:11;6.20;91.50
70366;DHT22;57787;48.216;12.396;2023-11-19T06:23:38;6.20;91.60
70366;DHT22;57787;48.216;12.396;2023-11-19T06:26:05;6.20;91.70
70366;DHT22;57787;48.216;12.396;2023-11-19T06:28:32;6.30;91.80
70366;DHT22;57787;48.216;12.396;2023-11-19T06:30:59;6.30;91.70
70366;DHT22;57787;48.216;12.396;2023-11-19T06:33:25;6.30;91.80
70366;DHT22;57787;48.216;12.396;2023-11-19T06:35:53;6.30;91.80
70366;DHT22;57787;48.216;12.396;2023-11-19T06:38:21;6.30;91.80
70366;DHT22;57787;48.216;12.396;2023-11-19T06:40:53;6.40;91.80
70366;DHT22;57787;48.216;12.396;2023-11-19T06:43:20;6.40;92.00
70366;DHT22;57787;48.216;12.396;2023-11-19T06:45:49;6.40;92.00
70366;DHT22;57787;48.216;12.396;2023-11-19T06:48:16;6.50;92.10
70366;DHT22;57787;48.216;12.396;2023-11-19T06:50:43;6.50;92.20
70366;DHT22;57787;48.216;12.396;2023-11-19T06:53:10;6.50;92.20
70366;DHT22;57787;48.216;12.396;2023-11-19T06:55:37;6.60;92.30
70366;DHT22;57787;48.216;12.396;2023-11-19T06:58:05;6.70;92.30
70366;DHT22;57787;48.216;12.396;2023-11-19T07:00:35;6.70;92.20
70366;DHT22;57787;48.216;12.396;2023-11-19T07:03:03;6.80;92.30
70366;DHT22;57787;48.216;12.396;2023-11-19T07:05:32;6.80;92.30
70366;DHT22;57787;48.216;12.396;2023-11-19T07:08:00;6.90;92.30
70366;DHT22;57787;48.216;12.396;2023-11-19T07:10:27;7.00;92.40
70366;DHT22;57787;48.216;12.396;2023-11-19T07:12:57;7.10;92.50
70366;DHT22;57787;48.216;12.396;2023-11-19T07:15:24;7.20;92.60
70366;DHT22;57787;48.216;12.396;2023-11-19T07:17:51;7.40;92.70
70366;DHT22;57787;48.216;12.396;2023-11-19T07:20:21;7.50;92.80
70366;DHT22;57787;48.216;12.396;2023-11-19T07:22:48;7.60;92.70
70366;DHT22;57787;48.216;12.396;2023-11-19T07:25:18;7.70;92.70
70366;DHT22;57787;48.216;12.396;2023-11-19T07:27:45;7.80;92.70
70366;DHT22;57787;48.216;12.396;2023-11-19T07:30:14;7.90;92.60
70366;DHT22;57787;48.216;12.396;2023-11-19T07:32:41;7.90;92.60
70366;DHT22;57787;48.216;12.396;2023-11-19T07:35:08;8.00;92.60
70366;DHT22;57787;48.216;12.396;2023-11-19T07:37:35;8.00;92.50
70366;DHT22;57787;48.216;12.396;2023-11-19T07:40:05;8.10;92.60
70366;DHT22;57787;48.216;12.396;2023-11-19T07:42:32;8.20;92.70
70366;DHT22;57787;48.216;12.396;2023-11-19T07:44:59;8.30;92.60
70366;DHT22;57787;48.216;12.396;2023-11-19T07:47:28;8.30;92.60
70366;DHT22;57787;48.216;12.396;2023-11-19T07:49:55;8.30;92.50
70366;DHT22;57787;48.216;12.396;2023-11-19T07:52:22;8.40;92.50
70366;DHT22;57787;48.216;12.396;2023-11-19T07:54:49;8.50;92.40
70366;DHT22;57787;48.216;12.396;2023-11-19T07:57:19;8.60;92.40
70366;DHT22;57787;48.216;12.396;2023-11-19T07:59:46;8.60;92.40
70366;DHT22;57787;48.216;12.396;2023-11-19T08:02:13;8.70;92.30
70366;DHT22;57787;48.216;12.396;2023-11-19T08:04:41;8.70;92.20
70366;DHT22;57787;48.216;12.396;2023-11-19T08:07:11;8.70;92.10
70366;DHT22;57787;48.216;12.396;2023-11-19T08:09:38;8.80;92.10
70366;DHT22;57787;48.216;12.396;2023-11-19T08:12:09;8.80;92.10
70366;DHT22;57787;48.216;12.396;2023-11-19T08:14:36;8.80;92.10
70366;DHT22;57787;48.216;12.396;2023-11-19T08:17:04;8.90;92.10
70366;DHT22;57787;48.216;12.396;2023-11-19T08:19:33;9.00;92.20
70366;DHT22;57787;48.216;12.396;2023-11-19T08:22:02;9.10;92.20
70366;DHT22;57787;48.216;12.396;2023-11-19T08:24:33;9.20;92.20
70366;DHT22;57787;48.216;12.396;2023-11-19T08:27:03;9.30;92.10
70366;DHT22;57787;48.216;12.396;2023-11-19T08:29:31;9.50;92.00
70366;DHT22;57787;48.216;12.396;2023-11-19T08:31:59;9.70;91.70
70366;DHT22;57787;48.216;12.396;2023-11-19T08:34:29;9.70;91.30
70366;DHT22;57787;48.216;12.396;2023-11-19T08:36:56;9.70;91.30
70366;DHT22;57787;48.216;12.396;2023-11-19T08:39:23;9.70;91.30
70366;DHT22;57787;48.216;12.396;2023-11-19T08:41:50;9.80;91.20
70366;DHT22;57787;48.216;12.396;2023-11-19T08:44:17;9.90;91.20
70366;DHT22;57787;48.216;12.396;2023-11-19T08:46:49;10.00;91.40
70366;DHT22;57787;48.216;12.396;2023-11-19T08:49:17;10.20;91.20
70366;DHT22;57787;48.216;12.396;2023-11-19T08:51:47;10.30;90.90
70366;DHT22;57787;48.216;12.396;2023-11-19T08:54:14;10.40;90.70
70366;DHT22;57787;48.216;12.396;2023-11-19T08:56:41;10.50;90.60
70366;DHT22;57787;48.216;12.396;2023-11-19T08:59:07;10.60;90.60
70366;DHT22;57787;48.216;12.396;2023-11-19T09:01:41;10.80;90.50
70366;DHT22;57787;48.216;12.396;2023-11-19T09:04:08;11.00;90.30
70366;DHT22;57787;48.216;12.396;2023-11-19T09:06:37;11.10;89.90
70366;DHT22;57787;48.216;12.396;2023-11-19T09:09:05;11.10;89.80
70366;DHT22;57787;48.216;12.396;2023-11-19T09:11:34;11.30;89.80
70366;DHT22;57787;48.216;12.396;2023-11-19T09:14:01;11.40;89.70
70366;DHT22;57787;48.216;12.396;2023-11-19T09:16:28;11.50;89.70
70366;DHT22;57787;48.216;12.396;2023-11-19T09:18:56;11.80;90.00
70366;DHT22;57787;48.216;12.396;2023-11-19T09:21:27;12.20;90.50
70366;DHT22;57787;48.216;12.396;2023-11-19T09:23:59;12.50;90.40
70366;DHT22;57787;48.216;12.396;2023-11-19T09:26:26;12.80;89.40
70366;DHT22;57787;48.216;12.396;2023-11-19T09:28:55;13.00;88.70
70366;DHT22;57787;48.216;12.396;2023-11-19T09:31:22;13.20;88.00
70366;DHT22;57787;48.216;12.396;2023-11-19T09:33:49;13.30;87.30
70366;DHT22;57787;48.216;12.396;2023-11-19T09:36:16;13.40;87.80
70366;DHT22;57787;48.216;12.396;2023-11-19T09:38:43;13.50;87.50
70366;DHT22;57787;48.216;12.396;2023-11-19T09:41:14;13.60;87.70
70366;DHT22;57787;48.216;12.396;2023-11-19T09:43:41;13.60;86.90
70366;DHT22;57787;48.216;12.396;2023-11-19T09:46:12;13.70;87.00
70366;DHT22;57787;48.216;12.396;2023-11-19T09:48:41;13.70;86.80
70366;DHT22;57787;48.216;12.396;2023-11-19T09:51:09;13.70;86.20
70366;DHT22;57787;48.216;12.396;2023-11-19T09:53:38;13.80;86.60
70366;DHT22;57787;48.216;12.396;2023-11-19T09:56:06;13.80;86.50
70366;DHT22;57787;48.216;12.396;2023-11-19T09:58:34;13.90;85.60
70366;DHT22;57787;48.216;12.396;2023-11-19T10:01:01;14.10;85.70
70366;DHT22;57787;48.216;12.396;2023-11-19T10:03:36;14.10;85.40
70366;DHT22;57787;48.216;12.396;2023-11-19T10:06:07;14.10;85.00
70366;DHT22;57787;48.216;12.396;2023-11-19T10:08:34;14.10;85.70
70366;DHT22;57787;48.216;12.396;2023-11-19T10:11:01;14.00;85.50
70366;DHT22;57787;48.216;12.396;2023-11-19T10:13:28;14.20;85.90
70366;DHT22;57787;48.216;12.396;2023-11-19T10:15:58;14.30;85.80
70366;DHT22;57787;48.216;12.396;2023-11-19T10:18:25;14.40;84.90
70366;DHT22;57787;48.216;12.396;2023-11-19T10:20:52;14.40;84.50
70366;DHT22;57787;48.216;12.396;2023-11-19T10:23:19;14.50;83.80
70366;DHT22;57787;48.216;12.396;2023-11-19T10:25:46;14.50;83.70
70366;DHT22;57787;48.216;12.396;2023-11-19T10:28:16;14.60;83.50
70366;DHT22;57787;48.216;12.396;2023-11-19T10:30:46;14.80;83.20
70366;DHT22;57787;48.216;12.396;2023-11-19T10:33:14;14.80;83.00
70366;DHT22;57787;48.216;12.396;2023-11-19T10:35:51;14.90;82.20
70366;DHT22;57787;48.216;12.396;2023-11-19T10:38:22;14.80;82.00
70366;DHT22;57787;48.216;12.396;2023-11-19T10:40:50;14.70;82.70
70366;DHT22;57787;48.216;12.396;2023-11-19T10:43:17;14.60;82.90
70366;DHT22;57787;48.216;12.396;2023-11-19T10:45:44;14.40;83.70
70366;DHT22;57787;48.216;12.396;2023-11-19T10:48:11;14.40;83.50
70366;DHT22;57787;48.216;12.396;2023-11-19T10:50:40;14.30;83.30
70366;DHT22;57787;48.216;12.396;2023-11-19T10:53:08;14.30;83.20
70366;DHT22;57787;48.216;12.396;2023-11-19T10:55:36;14.30;84.00
70366;DHT22;57787;48.216;12.396;2023-11-19T10:58:07;14.30;83.80
70366;DHT22;57787;48.216;12.396;2023-11-19T11:00:37;14.20;84.50
70366;DHT22;57787;48.216;12.396;2023-11-19T11:03:26;14.20;84.60
70366;DHT22;57787;48.216;12.396;2023-11-19T11:05:52;14.30;84.90
70366;DHT22;57787;48.216;12.396;2023-11-19T11:08:20;14.50;84.30
70366;DHT22;57787;48.216;12.396;2023-11-19T11:10:53;14.60;83.40
70366;DHT22;57787;48.216;12.396;2023-11-19T11:13:24;14.40;82.80
70366;DHT22;57787;48.216;12.396;2023-11-19T11:15:51;14.30;83.30
70366;DHT22;57787;48.216;12.396;2023-11-19T11:18:20;14.30;83.50
70366;DHT22;57787;48.216;12.396;2023-11-19T11:20:48;14.10;84.00
70366;DHT22;57787;48.216;12.396;2023-11-19T11:31:15;14.20;84.90
70366;DHT22;57787;48.216;12.396;2023-11-19T11:36:36;14.60;83.40
70366;DHT22;57787;48.216;12.396;2023-11-19T11:39:05;15.00;84.70
70366;DHT22;57787;48.216;12.396;2023-11-19T11:41:34;15.30;83.40
70366;DHT22;57787;48.216;12.396;2023-11-19T11:44:01;15.30;82.20
70366;DHT22;57787;48.216;12.396;2023-11-19T11:49:04;15.60;81.70
70366;DHT22;57787;48.216;12.396;2023-11-19T11:54:25;16.00;80.00
70366;DHT22;57787;48.216;12.396;2023-11-19T11:57:02;16.10;79.40
70366;DHT22;57787;48.216;12.396;2023-11-19T11:59:36;16.20;79.30
70366;DHT22;57787;48.216;12.396;2023-11-19T12:02:05;16.10;78.80
70366;DHT22;57787;48.216;12.396;2023-11-19T12:04:34;16.10;79.20
70366;DHT22;57787;48.216;12.396;2023-11-19T12:07:21;16.10;79.10
70366;DHT22;57787;48.216;12.396;2023-11-19T12:09:52;15.90;79.00
70366;DHT22;57787;48.216;12.396;2023-11-19T12:12:21;15.80;80.20
70366;DHT22;57787;48.216;12.396;2023-11-19T12:17:51;15.50;79.80
70366;DHT22;57787;48.216;12.396;2023-11-19T12:20:20;15.20;79.40
70366;DHT22;57787;48.216;12.396;2023-11-19T12:22:50;14.90;80.80
70366;DHT22;57787;48.216;12.396;2023-11-19T12:25:17;14.70;81.50
70366;DHT22;57787;48.216;12.396;2023-11-19T12:27:51;14.70;82.40
70366;DHT22;57787;48.216;12.396;2023-11-19T12:30:25;14.80;83.20
70366;DHT22;57787;48.216;12.396;2023-11-19T12:32:52;14.80;82.50
70366;DHT22;57787;48.216;12.396;2023-11-19T12:35:20;14.60;82.20
70366;DHT22;57787;48.216;12.396;2023-11-19T12:37:51;14.50;82.30
70366;DHT22;57787;48.216;12.396;2023-11-19T12:40:21;14.40;82.20
70366;DHT22;57787;48.216;12.396;2023-11-19T12:42:49;14.30;82.60
70366;DHT22;57787;48.216;12.396;2023-11-19T12:45:17;14.10;82.90
70366;DHT22;57787;48.216;12.396;2023-11-19T12:47:43;14.10;83.40
70366;DHT22;57787;48.216;12.396;2023-11-19T12:50:10;14.10;83.70
70366;DHT22;57787;48.216;12.396;2023-11-19T12:52:37;14.30;83.40
70366;DHT22;57787;48.216;12.396;2023-11-19T12:57:53;14.50;82.80
70366;DHT22;57787;48.216;12.396;2023-11-19T13:00:22;14.60;82.60
70366;DHT22;57787;48.216;12.396;2023-11-19T13:02:49;14.70;82.10
70366;DHT22;57787;48.216;12.396;2023-11-19T13:05:23;14.70;81.50
70366;DHT22;57787;48.216;12.396;2023-11-19T13:07:50;14.60;81.50
70366;DHT22;57787;48.216;12.396;2023-11-19T13:10:29;14.30;82.10
70366;DHT22;57787;48.216;12.396;2023-11-19T13:13:14;14.20;82.60
70366;DHT22;57787;48.216;12.396;2023-11-19T13:15:42;14.10;83.50
70366;DHT22;57787;48.216;12.396;2023-11-19T13:18:16;14.10;83.90
70366;DHT22;57787;48.216;12.396;2023-11-19T13:20:46;14.10;83.80
70366;DHT22;57787;48.216;12.396;2023-11-19T13:23:15;14.20;83.90
70366;DHT22;57787;48.216;12.396;2023-11-19T13:25:46;14.30;84.00
70366;DHT22;57787;48.216;12.396;2023-11-19T13:28:14;14.30;84.10
70366;DHT22;57787;48.216;12.396;2023-11-19T13:30:41;14.40;84.00
70366;DHT22;57787;48.216;12.396;2023-11-19T13:33:11;14.40;83.80
70366;DHT22;57787;48.216;12.396;2023-11-19T13:35:39;14.60;82.70
70366;DHT22;57787;48.216;12.396;2023-11-19T13:38:12;14.80;82.70
70366;DHT22;57787;48.216;12.396;2023-11-19T13:40:39;14.80;81.90
70366;DHT22;57787;48.216;12.396;2023-11-19T13:43:09;14.80;80.50
70366;DHT22;57787;48.216;12.396;2023-11-19T13:45:37;14.80;80.50
70366;DHT22;57787;48.216;12.396;2023-11-19T13:48:04;14.80;80.60
70366;DHT22;57787;48.216;12.396;2023-11-19T13:50:31;14.90;81.00
70366;DHT22;57787;48.216;12.396;2023-11-19T13:52:58;15.00;81.60
70366;DHT22;57787;48.216;12.396;2023-11-19T13:55:28;15.20;81.00
70366;DHT22;57787;48.216;12.396;2023-11-19T13:57:55;15.30;80.40
70366;DHT22;57787;48.216;12.396;2023-11-19T14:00:24;15.50;79.20
70366;DHT22;57787;48.216;12.396;2023-11-19T14:02:51;15.60;79.10
70366;DHT22;57787;48.216;12.396;2023-11-19T14:05:19;15.70;79.40
70366;DHT22;57787;48.216;12.396;2023-11-19T14:08:04;15.70;79.30
70366;DHT22;57787;48.216;12.396;2023-11-19T14:10:52;15.60;78.20
70366;DHT22;57787;48.216;12.396;2023-11-19T14:13:23;15.50;78.30
70366;DHT22;57787;48.216;12.396;2023-11-19T14:15:54;15.40;78.60
70366;DHT22;57787;48.216;12.396;2023-11-19T14:18:23;15.20;77.70
70366;DHT22;57787;48.216;12.396;2023-11-19T14:20:50;14.90;79.00
70366;DHT22;57787;48.216;12.396;2023-11-19T14:23:17;14.80;79.70
70366;DHT22;57787;48.216;12.396;2023-11-19T14:25:44;14.60;80.50
70366;DHT22;57787;48.216;12.396;2023-11-19T14:28:11;14.50;80.70
70366;DHT22;57787;48.216;12.396;2023-11-19T14:30:40;14.40;81.90
70366;DHT22;57787;48.216;12.396;2023-11-19T14:33:08;14.30;81.80
70366;DHT22;57787;48.216;12.396;2023-11-19T14:35:35;14.30;81.20
70366;DHT22;57787;48.216;12.396;2023-11-19T14:38:02;14.30;81.20
70366;DHT22;57787;48.216;12.396;2023-11-19T14:40:36;14.20;81.50
70366;DHT22;57787;48.216;12.396;2023-11-19T14:43:08;14.10;81.20
70366;DHT22;57787;48.216;12.396;2023-11-19T14:45:40;14.00;82.20
70366;DHT22;57787;48.216;12.396;2023-11-19T14:48:16;13.90;82.20
70366;DHT22;57787;48.216;12.396;2023-11-19T14:50:44;13.80;82.50
70366;DHT22;57787;48.216;12.396;2023-11-19T14:53:11;13.70;83.10
70366;DHT22;57787;48.216;12.396;2023-11-19T14:55:38;13.60;82.80
70366;DHT22;57787;48.216;12.396;2023-11-19T14:58:04;13.50;82.70
70366;DHT22;57787;48.216;12.396;2023-11-19T15:00:37;13.30;83.10
70366;DHT22;57787;48.216;12.396;2023-11-19T15:03:05;13.20;83.90
70366;DHT22;57787;48.216;12.396;2023-11-19T15:05:33;13.00;84.10
70366;DHT22;57787;48.216;12.396;2023-11-19T15:08:04;12.80;84.40
70366;DHT22;57787;48.216;12.396;2023-11-19T15:10:30;12.60;84.70
70366;DHT22;57787;48.216;12.396;2023-11-19T15:12:59;12.50;85.30
70366;DHT22;57787;48.216;12.396;2023-11-19T15:15:26;12.40;85.90
70366;DHT22;57787;48.216;12.396;2023-11-19T15:17:55;12.30;86.30
70366;DHT22;57787;48.216;12.396;2023-11-19T15:20:23;12.30;86.30
70366;DHT22;57787;48.216;12.396;2023-11-19T15:22:50;12.30;86.20
70366;DHT22;57787;48.216;12.396;2023-11-19T15:25:16;12.40;85.90
70366;DHT22;57787;48.216;12.396;2023-11-19T15:27:44;12.30;85.70
70366;DHT22;57787;48.216;12.396;2023-11-19T15:30:11;12.20;86.00
70366;DHT22;57787;48.216;12.396;2023-11-19T15:32:38;12.00;86.20
70366;DHT22;57787;48.216;12.396;2023-11-19T15:35:06;11.80;86.80
70366;DHT22;57787;48.216;12.396;2023-11-19T15:37:40;11.60;86.90
70366;DHT22;57787;48.216;12.396;2023-11-19T15:40:10;11.30;87.40
70366;DHT22;57787;48.216;12.396;2023-11-19T15:42:41;11.10;88.00
70366;DHT22;57787;48.216;12.396;2023-11-19T15:45:08;10.90;88.20
70366;DHT22;57787;48.216;12.396;2023-11-19T15:47:36;10.80;88.50
70366;DHT22;57787;48.216;12.396;2023-11-19T15:50:03;10.70;88.80
70366;DHT22;57787;48.216;12.396;2023-11-19T15:52:30;10.50;89.10
70366;DHT22;57787;48.216;12.396;2023-11-19T15:54:58;10.50;89.50